NOAA Web Site Link Tides and Currents Home Page Transparent placeholder image

PORTS® Data Listing: 8454049 Quonset Point, RI

CO-OPS RAW PORTS DATA

************************      PRELIMINARY DATA      ************************** 

     THIS RAW DATA HAS NOT BEEN SUBJECT TO THE NATIONAL OCEAN SERVICE'S        
     QUALITY CONTROL OR QUALITY ASSURANCE PROCEDURES AND DOES NOT MEET         
     THE CRITERIA AND STANDARDS OF OFFICIAL NATIONAL OCEAN SERVICE             
     DATA.  IT IS RELEASED FOR LIMITED PUBLIC USE AS PRELIMINARY DATA TO       
     BE USED ONLY WITH APPROPRIATE CAUTION.                                    

************************      PRELIMINARY DATA      ************************** 


       CD   -   Calendar date
       T    -   Time
       TZ   -   Timezone
       PW   -   Predicted water level (feet above MLLW)
       OW   -   Observed water level (feet above MLLW)
       WS   -   Wind speed (knots)
       WD   -   Wind direction (degrees true)
       WG   -   Wind gust (knots)
       AT   -   Air temperature (degrees farenheit)
       WT   -   Water temperature (degrees farenheit)
       AP   -   Air pressure (millibars)
       SA   -   Salinty (PSU - Practical Salinity Units)
       SG   -   Specific gravity
       RH   -   Relative humidity
       AG   -   Air gap (feet)
       VI   -   Visibility (nautical miles)

       ** NOTE **
       A variable that has its data fields filled with "9"s, indicates that
       data was not collected for that sample period.
       **********


STATION NAME: Quonset Point (8454049)
****************************************************************************************************
    CD       T    TZ    PW     OW    WS   WD   WG    AT    WT    AP    SA    SG     RH    AG   VI
****************************************************************************************************
2019/07/21 11:42 EDT    3.58   4.09    4  229    4  84.2  72.1 1007.9 20.4  1.014 -99.9 -99.99 -9.99
2019/07/21 11:48 EDT    3.58   4.06    4  227    5  84.6  72.9 1007.8 20.3  1.014 -99.9 -99.99 -9.99
2019/07/21 11:54 EDT    3.58   4.05    3  215    4  84.9  72.7 1007.7 20.3  1.014 -99.9 -99.99 -9.99
2019/07/21 12:00 EDT    3.58   4.05    4  219    6  83.8  72.1 1007.5 20.4  1.014 -99.9 -99.99 -9.99
2019/07/21 12:06 EDT    3.56   4.03    5  233    6  83.8  72.1 1007.6 20.4  1.014 -99.9 -99.99 -9.99
2019/07/21 12:12 EDT    3.55   3.98    5  228    5  83.3  72.1 1007.5 20.4  1.014 -99.9 -99.99 -9.99
2019/07/21 12:18 EDT    3.53   3.95    4  235    5  82.2  71.8 1007.6 20.4  1.014 -99.9 -99.99 -9.99
2019/07/21 12:24 EDT    3.50   3.92    6  224    8  83.8  72.0 1007.3 20.3  1.014 -99.9 -99.99 -9.99
2019/07/21 12:30 EDT    3.47   3.89    5  227    7  83.1  71.1 1007.4 20.5  1.014 -99.9 -99.99 -9.99
2019/07/21 12:36 EDT    3.44   3.86    6  222    7  84.4  71.1 1007.4 20.4  1.014 -99.9 -99.99 -9.99
2019/07/21 12:42 EDT    3.40   3.84    5  226    6  83.7  70.2 1007.3 20.6  1.014 -99.9 -99.99 -9.99
2019/07/21 12:48 EDT    3.35   3.80    6  225    8  85.6  70.9 1007.2 20.5  1.014 -99.9 -99.99 -9.99
2019/07/21 12:54 EDT    3.30   3.72    5  215    6  85.3  70.7 1007.2 20.5  1.014 -99.9 -99.99 -9.99
2019/07/21 13:00 EDT    3.25   3.68    4  169    5  84.4  70.0 1007.1 20.6  1.014 -99.9 -99.99 -9.99
2019/07/21 13:06 EDT    3.20   3.65    5  166    7  84.0  69.4 1007.0 20.7  1.015 -99.9 -99.99 -9.99
2019/07/21 13:12 EDT    3.13   3.60    6  172    7  84.2  69.6 1007.0 20.7  1.015 -99.9 -99.99 -9.99
2019/07/21 13:18 EDT    3.07   3.51   13  241   15  88.0  70.0 1006.9 20.7  1.015 -99.9 -99.99 -9.99
2019/07/21 13:24 EDT    3.00   3.45   11  236   12  87.8  69.6 1006.8 20.6  1.015 -99.9 -99.99 -9.99
2019/07/21 13:30 EDT    2.93   3.41    9  242   14  87.3  69.1 1006.7 20.7  1.015 -99.9 -99.99 -9.99
2019/07/21 13:36 EDT    2.86   3.32   10  241   12  87.6  69.6 1006.6 20.6  1.015 -99.9 -99.99 -9.99
2019/07/21 13:42 EDT    2.78   3.25   11  245   13  88.7  70.9 1006.6 20.6  1.014 -99.9 -99.99 -9.99
2019/07/21 13:48 EDT    2.70   3.17   10  243   14  87.3  70.5 1006.6 20.6  1.014 -99.9 -99.99 -9.99
2019/07/21 13:54 EDT    2.62   3.10   11  229   13  87.4  72.1 1006.5 20.5  1.014 -99.9 -99.99 -9.99
2019/07/21 14:00 EDT    2.53   3.02   11  238   13  88.5  73.0 1006.6 20.3  1.014 -99.9 -99.99 -9.99
2019/07/21 14:06 EDT    2.45   2.98   12  252   14  88.9  73.2 1006.6 20.3  1.014 -99.9 -99.99 -9.99
2019/07/21 14:12 EDT    2.36   2.92   11  252   14  89.1  74.1 1006.6 20.1  1.013 -99.9 -99.99 -9.99
2019/07/21 14:18 EDT    2.27   2.85   11  240   12  89.2  74.1 1006.5 20.1  1.013 -99.9 -99.99 -9.99
2019/07/21 14:24 EDT    2.18   2.78   11  250   15  88.0  74.1 1006.4 20.2  1.014 -99.9 -99.99 -9.99
2019/07/21 14:30 EDT    2.09   2.67   10  237   14  88.3  74.8 1006.4 20.1  1.013 -99.9 -99.99 -9.99
2019/07/21 14:36 EDT    2.00   2.59    9  235   10  88.2  74.8 1006.4 20.2  1.013 -99.9 -99.99 -9.99
2019/07/21 14:42 EDT    1.91   2.54   12  227   15  87.8  74.5 1006.4 20.2  1.014 -99.9 -99.99 -9.99
2019/07/21 14:48 EDT    1.82   2.44   13  225   16  87.8  74.5 1006.4 20.2  1.014 -99.9 -99.99 -9.99
2019/07/21 14:54 EDT    1.73   2.36   13  230   16  88.7  74.8 1006.5 20.2  1.013 -99.9 -99.99 -9.99
2019/07/21 15:00 EDT    1.64   2.25   11  232   15  87.1  74.5 1006.5 20.2  1.014 -99.9 -99.99 -9.99
2019/07/21 15:06 EDT    1.55   2.16   11  240   13  86.9  75.6 1006.6 20.3  1.013 -99.9 -99.99 -9.99
2019/07/21 15:12 EDT    1.47   2.13   11  235   13  88.0  72.3 1006.6 20.8  1.014 -99.9 -99.99 -9.99
2019/07/21 15:18 EDT    1.39   2.06   13  237   15  88.7  77.0 1006.6 20.2  1.013 -99.9 -99.99 -9.99
2019/07/21 15:24 EDT    1.31   1.98   11  235   14  87.4  77.0 1006.5 20.2  1.013 -99.9 -99.99 -9.99
2019/07/21 15:30 EDT    1.23   1.92   13  226   15  87.1  77.5 1006.5 20.1  1.013 -99.9 -99.99 -9.99
2019/07/21 15:36 EDT    1.16   1.84   11  227   15  86.9  77.9 1006.5 20.1  1.013 -99.9 -99.99 -9.99
2019/07/21 15:42 EDT    1.09   1.76    8  241   11  88.5  77.7 1006.6 20.1  1.013 -99.9 -99.99 -9.99
2019/07/21 15:48 EDT    1.03   1.68    8  232   12  89.1  77.7 1006.6 20.1  1.013 -99.9 -99.99 -9.99
2019/07/21 15:54 EDT    0.97   1.66    8  239   11  88.3  77.7 1006.5 20.1  1.013 -99.9 -99.99 -9.99
2019/07/21 16:00 EDT    0.91   1.60   11  232   13  88.0  78.1 1006.5 20.0  1.013 -99.9 -99.99 -9.99
2019/07/21 16:06 EDT    0.86   1.51   12  234   14  88.7  77.9 1006.4 20.1  1.013 -99.9 -99.99 -9.99
2019/07/21 16:12 EDT    0.82   1.42   12  237   14  88.0  78.3 1006.4 20.0  1.013 -99.9 -99.99 -9.99
2019/07/21 16:18 EDT    0.77   1.39   11  238   14  87.6  78.3 1006.5 20.0  1.013 -99.9 -99.99 -9.99
2019/07/21 16:24 EDT    0.74   1.37   10  232   12  87.3  78.3 1006.5 20.0  1.013 -99.9 -99.99 -9.99
2019/07/21 16:30 EDT    0.71   1.30    9  233   14  86.5  78.3 1006.6 20.0  1.013 -99.9 -99.99 -9.99
2019/07/21 16:36 EDT    0.68   1.29   10  239   13  87.1  78.3 1006.6 20.1  1.013 -99.9 -99.99 -9.99
2019/07/21 16:42 EDT    0.67   1.30    8  222   11  86.9  78.3 1006.6 20.1  1.013 -99.9 -99.99 -9.99
2019/07/21 16:48 EDT    0.65   1.27   11  234   12  87.3  78.3 1006.6 20.1  1.013 -99.9 -99.99 -9.99
2019/07/21 16:54 EDT    0.64   1.24   11  237   13  87.6  78.3 1006.5 20.1  1.013 -99.9 -99.99 -9.99
2019/07/21 17:00 EDT    0.64   1.24   11  235   13  87.6  78.3 1006.5 20.0  1.013 -99.9 -99.99 -9.99
2019/07/21 17:06 EDT    0.64   1.24   10  236   13  87.8  78.3 1006.5 20.0  1.013 -99.9 -99.99 -9.99
2019/07/21 17:12 EDT    0.65   1.21   12  230   15  88.9  78.3 1006.5 20.0  1.013 -99.9 -99.99 -9.99
2019/07/21 17:18 EDT    0.66   1.18    9  237   13  87.3  78.1 1006.5 20.0  1.013 -99.9 -99.99 -9.99
2019/07/21 17:24 EDT    0.67   1.20    8  233   10  86.2  78.3 1006.5 20.0  1.013 -99.9 -99.99 -9.99
2019/07/21 17:30 EDT    0.69   1.21   11  232   12  87.6  78.3 1006.5 20.0  1.013 -99.9 -99.99 -9.99
2019/07/21 17:36 EDT    0.72   1.21   11  233   15  87.8  79.3 1006.5 20.1  1.013 -99.9 -99.99 -9.99
2019/07/21 17:42 EDT    0.74   1.21   10  229   14  86.9  79.3 1006.6 20.1  1.013 -99.9 -99.99 -9.99
2019/07/21 17:48 EDT    0.77   1.24   10  237   13  87.4  79.3 1006.6 20.1  1.013 -99.9 -99.99 -9.99
2019/07/21 17:54 EDT    0.81   1.28    8  238   12  87.1  78.4 1006.6 19.9  1.013 -99.9 -99.99 -9.99
2019/07/21 18:00 EDT    0.84   1.30   10  229   11  87.3  79.3 1006.7 20.0  1.013 -99.9 -99.99 -9.99
2019/07/21 18:06 EDT    0.88   1.35    8  225   11  87.4  79.3 1006.8 19.9  1.013 -99.9 -99.99 -9.99
2019/07/21 18:12 EDT    0.92   1.41    8  232   10  87.1  79.3 1006.8 19.9  1.012 -99.9 -99.99 -9.99
2019/07/21 18:18 EDT    0.97   1.43    9  232   10  86.5  79.2 1006.9 19.9  1.013 -99.9 -99.99 -9.99
2019/07/21 18:24 EDT    1.01   1.44    9  235   10  86.2  79.0 1007.0 19.6  1.012 -99.9 -99.99 -9.99
2019/07/21 18:30 EDT    1.05   1.51    8  231   10  85.5  78.8 1007.1 19.6  1.012 -99.9 -99.99 -9.99
2019/07/21 18:36 EDT    1.10   1.54   10  238   11  86.5  79.0 1007.3 19.7  1.012 -99.9 -99.99 -9.99
2019/07/21 18:42 EDT    1.15   1.57    8  239   10  86.2  78.1 1007.2 19.6  1.012 -99.9 -99.99 -9.99
2019/07/21 18:48 EDT    1.20   1.60    7  228    8  85.6  78.1 1007.2 19.8  1.013 -99.9 -99.99 -9.99
2019/07/21 18:54 EDT    1.24   1.67    7  230    8  84.9  77.9 1007.3 19.7  1.013 -99.9 -99.99 -9.99
2019/07/21 19:00 EDT    1.29   1.69    6  233    7  84.4  77.9 1007.4 19.7  1.013 -99.9 -99.99 -9.99
2019/07/21 19:06 EDT    1.34   1.76    7  241    8  83.8  77.9 1007.5 19.8  1.013 -99.9 -99.99 -9.99
2019/07/21 19:12 EDT    1.39   1.84    8  243    8  84.7  77.7 1007.6 19.8  1.013 -99.9 -99.99 -9.99
2019/07/21 19:18 EDT    1.44   1.92    6  243    8  84.4  77.5 1007.6 19.9  1.013 -99.9 -99.99 -9.99
2019/07/21 19:24 EDT    1.49   1.97    6  246    7  84.4  77.7 1007.6 20.0  1.013 -99.9 -99.99 -9.99
2019/07/21 19:30 EDT    1.54   2.03    5  246    6  83.7  78.6 1007.6 20.0  1.013 -99.9 -99.99 -9.99
2019/07/21 19:36 EDT    1.59   2.08    5  247    6  83.3  78.6 1007.6 20.0  1.013 -99.9 -99.99 -9.99
2019/07/21 19:42 EDT    1.64   2.16    4  246    6  83.1  78.6 1007.6 20.0  1.013 -99.9 -99.99 -9.99
2019/07/21 19:48 EDT    1.68   2.19    5  256    5  85.5  78.1 1007.6 20.0  1.013 -99.9 -99.99 -9.99
2019/07/21 19:54 EDT    1.73   2.23    3  269    5  86.5  77.9 1007.8 20.0  1.013 -99.9 -99.99 -9.99
2019/07/21 20:00 EDT    1.78   2.29    4  269    5  86.5  77.7 1007.8 20.0  1.013 -99.9 -99.99 -9.99
2019/07/21 20:06 EDT    1.83   2.32    4  274    5  88.0  77.5 1007.8 20.0  1.013 -99.9 -99.99 -9.99
2019/07/21 20:12 EDT    1.88   2.34    4  277    5  88.5  77.4 1007.8 20.1  1.013 -99.9 -99.99 -9.99
2019/07/21 20:18 EDT    1.93   2.39    4  313    5  88.3  77.0 1007.9 20.1  1.013 -99.9 -99.99 -9.99
2019/07/21 20:24 EDT    1.98   2.46    4  313    4  88.2  77.0 1008.0 20.0  1.013 -99.9 -99.99 -9.99
2019/07/21 20:30 EDT    2.03   2.53    4  317    5  88.0  76.8 1008.1 20.0  1.013 -99.9 -99.99 -9.99
2019/07/21 20:36 EDT    2.08   2.57    4  312    5  87.8  77.0 1008.2 20.1  1.013 -99.9 -99.99 -9.99
2019/07/21 20:42 EDT    2.14   2.60    3  301    5  88.2  77.0 1008.3 20.4  1.013 -99.9 -99.99 -9.99
2019/07/21 20:48 EDT    2.19   2.66    1  252    5  85.8  74.5 1008.4 21.3  1.014 -99.9 -99.99 -9.99
2019/07/21 20:54 EDT    2.24   2.71    3  188    4  82.2  74.1 1008.5 20.4  1.014 -99.9 -99.99 -9.99
2019/07/21 21:00 EDT    2.30   2.77    4  118    7  80.8  73.9 1008.6 20.3  1.014 -99.9 -99.99 -9.99
2019/07/21 21:06 EDT    2.35   2.84    2  115    7  82.9  73.9 1008.7 20.3  1.014 -99.9 -99.99 -9.99
2019/07/21 21:12 EDT    2.41   2.89    2   56    4  84.0  73.2 1008.8 20.4  1.014 -99.9 -99.99 -9.99
2019/07/21 21:18 EDT    2.47   2.93    1    3    4  85.3  73.8 1008.8 20.3  1.014 -99.9 -99.99 -9.99
2019/07/21 21:24 EDT    2.53   2.99    3  349    4  85.6  73.4 1008.8 20.6  1.014 -99.9 -99.99 -9.99
2019/07/21 21:30 EDT    2.58   3.05    3  344    5  86.7  73.6 1008.8 20.3  1.014 -99.9 -99.99 -9.99
2019/07/21 21:36 EDT    2.64   3.10    1  342    3  85.5  73.6 1008.8 20.3  1.014 -99.9 -99.99 -9.99
2019/07/21 21:42 EDT    2.70   3.15    1  203    1  83.7  72.7 1008.8 22.2  1.015 -99.9 -99.99 -9.99
2019/07/21 21:48 EDT    2.76   3.20    3  175    4  81.9  72.1 1008.9 22.3  1.015 -99.9 -99.99 -9.99
2019/07/21 21:54 EDT    2.82   3.25    4  176    5  80.8  72.5 1008.9 20.5  1.014 -99.9 -99.99 -9.99
2019/07/21 22:00 EDT    2.88   3.28    2  179    4  80.6  72.0 1008.8 22.3  1.015 -99.9 -99.99 -9.99
2019/07/21 22:06 EDT    2.94   3.36    2  196    2  80.1  72.0 1009.0 22.4  1.016 -99.9 -99.99 -9.99
2019/07/21 22:12 EDT    2.99   3.42    0  227    2  80.6  71.8 1009.1 22.0  1.015 -99.9 -99.99 -9.99
2019/07/21 22:18 EDT    3.05   3.49    1  274    2  80.8  72.1 1009.2 21.8  1.015 -99.9 -99.99 -9.99
2019/07/21 22:24 EDT    3.10   3.53    3  287    4  82.2  73.0 1009.3 22.0  1.015 -99.9 -99.99 -9.99
2019/07/21 22:30 EDT    3.16   3.58    3  327    4  84.4  73.0 1009.3 21.5  1.015 -99.9 -99.99 -9.99
2019/07/21 22:36 EDT    3.21   3.63    3  326    4  85.1  73.0 1009.4 20.6  1.014 -99.9 -99.99 -9.99
2019/07/21 22:42 EDT    3.26   3.66    4  322    5  85.3  73.4 1009.4 20.1  1.014 -99.9 -99.99 -9.99
2019/07/21 22:48 EDT    3.31   3.69    4  318    6  85.5  73.2 1009.4 20.3  1.014 -99.9 -99.99 -9.99
2019/07/21 22:54 EDT    3.35   3.75    4  320    5  85.5  73.2 1009.3 20.2  1.014 -99.9 -99.99 -9.99
2019/07/21 23:00 EDT    3.39   3.77    4  321    6  85.5  72.9 1009.3 20.4  1.014 -99.9 -99.99 -9.99
2019/07/21 23:06 EDT    3.43   3.80    5  335    7  85.3  72.5 1009.3 20.4  1.014 -99.9 -99.99 -9.99
2019/07/21 23:12 EDT    3.46   3.82    5  317    7  85.1  72.3 1009.2 20.9  1.014 -99.9 -99.99 -9.99
2019/07/21 23:18 EDT    3.49   3.87    5  323    6  84.9  72.3 1009.1 22.4  1.016 -99.9 -99.99 -9.99
2019/07/21 23:24 EDT    3.52   3.91    7  316   10  85.3  72.7 1009.1 22.1  1.015 -99.9 -99.99 -9.99
2019/07/21 23:30 EDT    3.55   3.95    6  317    9  85.1  72.9 1009.1 22.2  1.015 -99.9 -99.99 -9.99
2019/07/21 23:36 EDT    3.56   3.99    4  309    8  84.9  72.5 1009.2 20.6  1.014 -99.9 -99.99 -9.99
2019/07/21 23:42 EDT    3.58   4.01    4  305    9  84.9  72.5 1009.4 20.9  1.014 -99.9 -99.99 -9.99
2019/07/21 23:48 EDT    3.59   4.03    6  304    9  84.9  72.3 1009.5 20.3  1.014 -99.9 -99.99 -9.99
2019/07/21 23:54 EDT    3.60   4.04    6  303   10  84.9  72.3 1009.5 20.4  1.014 -99.9 -99.99 -9.99
2019/07/22 00:00 EDT    3.60   4.05    5  309    9  84.4  72.5 1009.6 20.3  1.014 -99.9 -99.99 -9.99
2019/07/22 00:06 EDT    3.59   4.06    6  308   10  84.2  72.5 1009.7 20.3  1.014 -99.9 -99.99 -9.99
2019/07/22 00:12 EDT    3.59   4.04    4  308    7  84.2  72.5 1009.8 21.1  1.014 -99.9 -99.99 -9.99
2019/07/22 00:18 EDT    3.57   4.05    6  308   10  83.8  72.5 1009.9 21.9  1.015 -99.9 -99.99 -9.99
2019/07/22 00:24 EDT    3.56   4.05    6  314    8  83.7  72.7 1009.9 20.9  1.014 -99.9 -99.99 -9.99
2019/07/22 00:30 EDT    3.53   4.02    6  313    9  83.3  72.7 1009.8 21.2  1.015 -99.9 -99.99 -9.99
2019/07/22 00:36 EDT    3.51   3.98    7  314   10  83.1  72.7 1009.8 21.1  1.014 -99.9 -99.99 -9.99
2019/07/22 00:42 EDT    3.48   3.99    6  318    9  82.8  72.7 1009.8 22.1  1.015 -99.9 -99.99 -9.99
2019/07/22 00:48 EDT    3.44   3.98    8  321   11  82.6  72.5 1009.8 21.0  1.014 -99.9 -99.99 -9.99
2019/07/22 00:54 EDT    3.40   3.95    7  322   10  82.2  72.9 1009.8 22.3  1.015 -99.9 -99.99 -9.99
2019/07/22 01:00 EDT    3.36   3.91    8  318   10  82.0  72.5 1009.7 21.3  1.015 -99.9 -99.99 -9.99
2019/07/22 01:06 EDT    3.31   3.93    7  320    9  81.9  72.9 1009.7 20.8  1.014 -99.9 -99.99 -9.99
2019/07/22 01:12 EDT    3.25   3.90    7  319    9  81.9  72.7 1009.8 21.6  1.015 -99.9 -99.99 -9.99
2019/07/22 01:18 EDT    3.20   3.80    5  312    7  81.7  72.9 1009.8 21.7  1.015 -99.9 -99.99 -9.99
2019/07/22 01:24 EDT    3.14   3.74    5  313    7  81.5  72.7 1009.9 21.3  1.015 -99.9 -99.99 -9.99
2019/07/22 01:30 EDT    3.07   3.64    5  312    7  81.5  72.5 1010.0 21.9  1.015 -99.9 -99.99 -9.99
2019/07/22 01:36 EDT    3.00   3.49    5  315    7  81.5  72.9 1010.0 20.2  1.014 -99.9 -99.99 -9.99
2019/07/22 01:42 EDT    2.93   3.36    4  312    6  81.3  73.8 1010.1 20.6  1.014 -99.9 -99.99 -9.99
2019/07/22 01:48 EDT    2.86   3.34    4  292    7  81.5  74.3 1010.2 21.2  1.014 -99.9 -99.99 -9.99
2019/07/22 01:54 EDT    2.78   3.29    4  300    7  81.5  74.3 1010.2 21.3  1.014 -99.9 -99.99 -9.99
2019/07/22 02:00 EDT    2.70   3.22    5  306    7  81.5  74.7 1010.2 21.1  1.014 -99.9 -99.99 -9.99
2019/07/22 02:06 EDT    2.62   3.12    4  315    6  81.3  73.8 1010.2 20.3  1.014 -99.9 -99.99 -9.99
2019/07/22 02:12 EDT    2.53   3.04    5  308    7  81.1  73.8 1010.2 21.0  1.014 -99.9 -99.99 -9.99
2019/07/22 02:18 EDT    2.45   2.94    6  308    8  81.0  72.7 1010.2 21.7  1.015 -99.9 -99.99 -9.99
2019/07/22 02:24 EDT    2.36   2.84    5  304    8  80.8  73.4 1010.2 22.1  1.015 -99.9 -99.99 -9.99
2019/07/22 02:30 EDT    2.27   2.73    6  309    9  80.6  74.1 1010.1 21.4  1.014 -99.9 -99.99 -9.99
2019/07/22 02:36 EDT    2.18   2.64    6  308    9  80.2  73.9 1010.1 22.2  1.015 -99.9 -99.99 -9.99
2019/07/22 02:42 EDT    2.09   2.53    6  314    9  80.1  74.1 1010.2 21.7  1.015 -99.9 -99.99 -9.99
2019/07/22 02:48 EDT    1.99   2.43    7  321   11  79.9  74.3 1010.2 20.3  1.014 -99.9 -99.99 -9.99
2019/07/22 02:54 EDT    1.90   2.35    7  323    9  79.7  71.1 1010.1 20.6  1.014 -99.9 -99.99 -9.99
2019/07/22 03:00 EDT    1.81   2.25    7  325   10  79.5  70.9 1010.0 20.6  1.014 -99.9 -99.99 -9.99
2019/07/22 03:06 EDT    1.72   2.18    7  324   11  79.3  72.1 1010.1 20.3  1.014 -99.9 -99.99 -9.99
2019/07/22 03:12 EDT    1.63   2.12    6  326    9  79.3  74.3 1010.0 20.1  1.013 -99.9 -99.99 -9.99
2019/07/22 03:18 EDT    1.54   2.06    7  322   10  79.3  75.0 1010.0 21.6  1.014 -99.9 -99.99 -9.99
2019/07/22 03:24 EDT    1.45   1.96    7  325   10  79.2  75.0 1010.0 20.5  1.014 -99.9 -99.99 -9.99
2019/07/22 03:30 EDT    1.37   1.87    7  331   11  79.2  74.3 1009.9 21.8  1.015 -99.9 -99.99 -9.99
2019/07/22 03:36 EDT    1.28   1.74    8  336   11  79.0  73.4 1009.7 21.7  1.015 -99.9 -99.99 -9.99
2019/07/22 03:42 EDT    1.20   1.62    6  333   11  78.8  73.6 1009.6 22.1  1.015 -99.9 -99.99 -9.99
2019/07/22 03:48 EDT    1.12   1.47    7  328   12  78.8  73.2 1009.6 22.1  1.015 -99.9 -99.99 -9.99
2019/07/22 03:54 EDT    1.05   1.24    7  329    9  78.8  73.6 1009.6 22.0  1.015 -99.9 -99.99 -9.99
2019/07/22 04:00 EDT    0.98   1.03    7  327   11  78.8  73.6 1009.5 20.7  1.014 -99.9 -99.99 -9.99
2019/07/22 04:06 EDT    0.91   0.94    7  325   10  78.6  73.2 1009.6 20.3  1.014 -99.9 -99.99 -9.99
2019/07/22 04:12 EDT    0.85   1.00    9  325   13  78.6  73.6 1009.7 20.4  1.014 -99.9 -99.99 -9.99
2019/07/22 04:18 EDT    0.79   1.08    8  328   12  78.4  73.8 1009.8 20.3  1.014 -99.9 -99.99 -9.99
2019/07/22 04:24 EDT    0.73   1.17    7  330   10  78.3  73.4 1009.8 20.3  1.014 -99.9 -99.99 -9.99
2019/07/22 04:30 EDT    0.68   1.21    7  322   11  78.3  72.5 1009.9 20.3  1.014 -99.9 -99.99 -9.99
2019/07/22 04:36 EDT    0.64   1.13    5  337    9  77.9  72.9 1009.9 20.3  1.014 -99.9 -99.99 -9.99
2019/07/22 04:42 EDT    0.60   1.05    5  337    8  78.1  73.4 1010.0 20.2  1.014 -99.9 -99.99 -9.99
2019/07/22 04:48 EDT    0.56   1.01    4  338    7  77.9  72.9 1010.1 20.2  1.014 -99.9 -99.99 -9.99
2019/07/22 04:54 EDT    0.53   1.07    4  341    6  77.9  73.8 1010.2 20.2  1.014 -99.9 -99.99 -9.99
2019/07/22 05:00 EDT    0.51   1.07    3  323    4  77.7  74.3 1010.3 20.2  1.014 -99.9 -99.99 -9.99
2019/07/22 05:06 EDT    0.49   0.97    4  313    5  77.5  74.5 1010.5 20.1  1.013 -99.9 -99.99 -9.99
2019/07/22 05:12 EDT    0.48   0.96    3  318    5  77.5  74.3 1010.6 20.1  1.013 -99.9 -99.99 -9.99
2019/07/22 05:18 EDT    0.47   1.06    3  328    4  77.2  74.8 1010.5 20.2  1.013 -99.9 -99.99 -9.99
2019/07/22 05:24 EDT    0.47   1.05    4  341    4  77.0  74.8 1010.3 20.1  1.013 -99.9 -99.99 -9.99
2019/07/22 05:30 EDT    0.47   1.01    5  347    6  77.0  75.0 1010.2 20.1  1.013 -99.9 -99.99 -9.99
2019/07/22 05:36 EDT    0.47 -99.99 -999 -999 -999 -99.9 -99.9 -999.9 -9.9 -9.999 -99.9 -99.99 -9.99
2019/07/22 05:42 EDT    0.48 -99.99 -999 -999 -999 -99.9 -99.9 -999.9 -9.9 -9.999 -99.9 -99.99 -9.99
2019/07/22 05:48 EDT    0.50 -99.99 -999 -999 -999 -99.9 -99.9 -999.9 -9.9 -9.999 -99.9 -99.99 -9.99
2019/07/22 05:54 EDT    0.52 -99.99 -999 -999 -999 -99.9 -99.9 -999.9 -9.9 -9.999 -99.9 -99.99 -9.99
2019/07/22 06:00 EDT    0.54 -99.99 -999 -999 -999 -99.9 -99.9 -999.9 -9.9 -9.999 -99.9 -99.99 -9.99
2019/07/22 06:06 EDT    0.57 -99.99 -999 -999 -999 -99.9 -99.9 -999.9 -9.9 -9.999 -99.9 -99.99 -9.99
2019/07/22 06:12 EDT    0.59 -99.99 -999 -999 -999 -99.9 -99.9 -999.9 -9.9 -9.999 -99.9 -99.99 -9.99
2019/07/22 06:18 EDT    0.63 -99.99 -999 -999 -999 -99.9 -99.9 -999.9 -9.9 -9.999 -99.9 -99.99 -9.99
2019/07/22 06:24 EDT    0.66 -99.99 -999 -999 -999 -99.9 -99.9 -999.9 -9.9 -9.999 -99.9 -99.99 -9.99
2019/07/22 06:30 EDT    0.70 -99.99 -999 -999 -999 -99.9 -99.9 -999.9 -9.9 -9.999 -99.9 -99.99 -9.99
2019/07/22 06:36 EDT    0.74 -99.99 -999 -999 -999 -99.9 -99.9 -999.9 -9.9 -9.999 -99.9 -99.99 -9.99
2019/07/22 06:42 EDT    0.78 -99.99 -999 -999 -999 -99.9 -99.9 -999.9 -9.9 -9.999 -99.9 -99.99 -9.99
2019/07/22 06:48 EDT    0.82 -99.99 -999 -999 -999 -99.9 -99.9 -999.9 -9.9 -9.999 -99.9 -99.99 -9.99
2019/07/22 06:54 EDT    0.86 -99.99 -999 -999 -999 -99.9 -99.9 -999.9 -9.9 -9.999 -99.9 -99.99 -9.99
2019/07/22 07:00 EDT    0.91 -99.99 -999 -999 -999 -99.9 -99.9 -999.9 -9.9 -9.999 -99.9 -99.99 -9.99
2019/07/22 07:06 EDT    0.96 -99.99 -999 -999 -999 -99.9 -99.9 -999.9 -9.9 -9.999 -99.9 -99.99 -9.99
2019/07/22 07:12 EDT    1.00 -99.99 -999 -999 -999 -99.9 -99.9 -999.9 -9.9 -9.999 -99.9 -99.99 -9.99
2019/07/22 07:18 EDT    1.05 -99.99 -999 -999 -999 -99.9 -99.9 -999.9 -9.9 -9.999 -99.9 -99.99 -9.99
2019/07/22 07:24 EDT    1.10 -99.99 -999 -999 -999 -99.9 -99.9 -999.9 -9.9 -9.999 -99.9 -99.99 -9.99
2019/07/22 07:30 EDT    1.14 -99.99 -999 -999 -999 -99.9 -99.9 -999.9 -9.9 -9.999 -99.9 -99.99 -9.99
2019/07/22 07:36 EDT    1.19 -99.99 -999 -999 -999 -99.9 -99.9 -999.9 -9.9 -9.999 -99.9 -99.99 -9.99
2019/07/22 07:42 EDT    1.24 -99.99 -999 -999 -999 -99.9 -99.9 -999.9 -9.9 -9.999 -99.9 -99.99 -9.99
2019/07/22 07:48 EDT    1.29 -99.99 -999 -999 -999 -99.9 -99.9 -999.9 -9.9 -9.999 -99.9 -99.99 -9.99
2019/07/22 07:54 EDT    1.33 -99.99 -999 -999 -999 -99.9 -99.9 -999.9 -9.9 -9.999 -99.9 -99.99 -9.99
2019/07/22 08:00 EDT    1.38 -99.99 -999 -999 -999 -99.9 -99.9 -999.9 -9.9 -9.999 -99.9 -99.99 -9.99
2019/07/22 08:06 EDT    1.43 -99.99 -999 -999 -999 -99.9 -99.9 -999.9 -9.9 -9.999 -99.9 -99.99 -9.99
2019/07/22 08:12 EDT    1.48 -99.99 -999 -999 -999 -99.9 -99.9 -999.9 -9.9 -9.999 -99.9 -99.99 -9.99
2019/07/22 08:18 EDT    1.53 -99.99 -999 -999 -999 -99.9 -99.9 -999.9 -9.9 -9.999 -99.9 -99.99 -9.99
2019/07/22 08:24 EDT    1.58 -99.99 -999 -999 -999 -99.9 -99.9 -999.9 -9.9 -9.999 -99.9 -99.99 -9.99
2019/07/22 08:30 EDT    1.63 -99.99 -999 -999 -999 -99.9 -99.9 -999.9 -9.9 -9.999 -99.9 -99.99 -9.99
2019/07/22 08:36 EDT    1.68 -99.99 -999 -999 -999 -99.9 -99.9 -999.9 -9.9 -9.999 -99.9 -99.99 -9.99
2019/07/22 08:42 EDT    1.73 -99.99 -999 -999 -999 -99.9 -99.9 -999.9 -9.9 -9.999 -99.9 -99.99 -9.99
2019/07/22 08:48 EDT    1.78 -99.99 -999 -999 -999 -99.9 -99.9 -999.9 -9.9 -9.999 -99.9 -99.99 -9.99
2019/07/22 08:54 EDT    1.83 -99.99 -999 -999 -999 -99.9 -99.9 -999.9 -9.9 -9.999 -99.9 -99.99 -9.99
2019/07/22 09:00 EDT    1.88 -99.99 -999 -999 -999 -99.9 -99.9 -999.9 -9.9 -9.999 -99.9 -99.99 -9.99
2019/07/22 09:06 EDT    1.94 -99.99 -999 -999 -999 -99.9 -99.9 -999.9 -9.9 -9.999 -99.9 -99.99 -9.99
2019/07/22 09:12 EDT    1.99 -99.99 -999 -999 -999 -99.9 -99.9 -999.9 -9.9 -9.999 -99.9 -99.99 -9.99
2019/07/22 09:18 EDT    2.05 -99.99 -999 -999 -999 -99.9 -99.9 -999.9 -9.9 -9.999 -99.9 -99.99 -9.99
2019/07/22 09:24 EDT    2.11 -99.99 -999 -999 -999 -99.9 -99.9 -999.9 -9.9 -9.999 -99.9 -99.99 -9.99
2019/07/22 09:30 EDT    2.16 -99.99 -999 -999 -999 -99.9 -99.9 -999.9 -9.9 -9.999 -99.9 -99.99 -9.99
2019/07/22 09:36 EDT    2.22 -99.99 -999 -999 -999 -99.9 -99.9 -999.9 -9.9 -9.999 -99.9 -99.99 -9.99
2019/07/22 09:42 EDT    2.28 -99.99 -999 -999 -999 -99.9 -99.9 -999.9 -9.9 -9.999 -99.9 -99.99 -9.99
2019/07/22 09:48 EDT    2.34 -99.99 -999 -999 -999 -99.9 -99.9 -999.9 -9.9 -9.999 -99.9 -99.99 -9.99
2019/07/22 09:54 EDT    2.41 -99.99 -999 -999 -999 -99.9 -99.9 -999.9 -9.9 -9.999 -99.9 -99.99 -9.99
2019/07/22 10:00 EDT    2.47 -99.99 -999 -999 -999 -99.9 -99.9 -999.9 -9.9 -9.999 -99.9 -99.99 -9.99
2019/07/22 10:06 EDT    2.53 -99.99 -999 -999 -999 -99.9 -99.9 -999.9 -9.9 -9.999 -99.9 -99.99 -9.99
2019/07/22 10:12 EDT    2.59 -99.99 -999 -999 -999 -99.9 -99.9 -999.9 -9.9 -9.999 -99.9 -99.99 -9.99
2019/07/22 10:18 EDT    2.66 -99.99 -999 -999 -999 -99.9 -99.9 -999.9 -9.9 -9.999 -99.9 -99.99 -9.99
2019/07/22 10:24 EDT    2.72 -99.99 -999 -999 -999 -99.9 -99.9 -999.9 -9.9 -9.999 -99.9 -99.99 -9.99
2019/07/22 10:30 EDT    2.78 -99.99 -999 -999 -999 -99.9 -99.9 -999.9 -9.9 -9.999 -99.9 -99.99 -9.99
2019/07/22 10:36 EDT    2.84 -99.99 -999 -999 -999 -99.9 -99.9 -999.9 -9.9 -9.999 -99.9 -99.99 -9.99
2019/07/22 10:42 EDT    2.90 -99.99 -999 -999 -999 -99.9 -99.9 -999.9 -9.9 -9.999 -99.9 -99.99 -9.99
2019/07/22 10:48 EDT    2.96 -99.99 -999 -999 -999 -99.9 -99.9 -999.9 -9.9 -9.999 -99.9 -99.99 -9.99
2019/07/22 10:54 EDT    3.02 -99.99 -999 -999 -999 -99.9 -99.9 -999.9 -9.9 -9.999 -99.9 -99.99 -9.99
2019/07/22 11:00 EDT    3.08 -99.99 -999 -999 -999 -99.9 -99.9 -999.9 -9.9 -9.999 -99.9 -99.99 -9.99
2019/07/22 11:06 EDT    3.13 -99.99 -999 -999 -999 -99.9 -99.9 -999.9 -9.9 -9.999 -99.9 -99.99 -9.99
2019/07/22 11:12 EDT    3.18 -99.99 -999 -999 -999 -99.9 -99.9 -999.9 -9.9 -9.999 -99.9 -99.99 -9.99
2019/07/22 11:18 EDT    3.23 -99.99 -999 -999 -999 -99.9 -99.9 -999.9 -9.9 -9.999 -99.9 -99.99 -9.99
2019/07/22 11:24 EDT    3.28 -99.99 -999 -999 -999 -99.9 -99.9 -999.9 -9.9 -9.999 -99.9 -99.99 -9.99
2019/07/22 11:30 EDT    3.32 -99.99 -999 -999 -999 -99.9 -99.9 -999.9 -9.9 -9.999 -99.9 -99.99 -9.99
2019/07/22 11:36 EDT    3.36 -99.99 -999 -999 -999 -99.9 -99.9 -999.9 -9.9 -9.999 -99.9 -99.99 -9.99
2019/07/22 11:42 EDT    3.39 -99.99 -999 -999 -999 -99.9 -99.9 -999.9 -9.9 -9.999 -99.9 -99.99 -9.99

Revised: 08/08/2018
NOAA / National Ocean Service
Web site owner: Center for Operational Oceanographic Products and Services